sensor_id;sensor_type;location;lat;lon;timestamp;P1;durP1;ratioP1;P2;durP2;ratioP2
16832;SDS011;8533;48.426;10.868;2022-10-20T00:02:26;18.23;;;8.03;;
16832;SDS011;8533;48.426;10.868;2022-10-20T00:04:54;14.47;;;8.07;;
16832;SDS011;8533;48.426;10.868;2022-10-20T00:07:21;13.50;;;7.90;;
16832;SDS011;8533;48.426;10.868;2022-10-20T00:09:49;15.60;;;7.40;;
16832;SDS011;8533;48.426;10.868;2022-10-20T00:12:16;12.30;;;7.10;;
16832;SDS011;8533;48.426;10.868;2022-10-20T00:14:44;12.20;;;6.67;;
16832;SDS011;8533;48.426;10.868;2022-10-20T00:17:11;13.47;;;7.43;;
16832;SDS011;8533;48.426;10.868;2022-10-20T00:19:38;14.83;;;7.43;;
16832;SDS011;8533;48.426;10.868;2022-10-20T00:22:06;14.20;;;8.23;;
16832;SDS011;8533;48.426;10.868;2022-10-20T00:24:33;14.17;;;8.10;;
16832;SDS011;8533;48.426;10.868;2022-10-20T00:27:01;13.83;;;7.20;;
16832;SDS011;8533;48.426;10.868;2022-10-20T00:29:28;14.87;;;7.63;;
16832;SDS011;8533;48.426;10.868;2022-10-20T00:31:56;13.43;;;7.40;;
16832;SDS011;8533;48.426;10.868;2022-10-20T00:34:23;14.37;;;7.63;;
16832;SDS011;8533;48.426;10.868;2022-10-20T00:36:51;14.33;;;8.27;;
16832;SDS011;8533;48.426;10.868;2022-10-20T00:39:18;15.27;;;7.73;;
16832;SDS011;8533;48.426;10.868;2022-10-20T00:41:46;14.90;;;7.03;;
16832;SDS011;8533;48.426;10.868;2022-10-20T00:45:15;13.73;;;8.30;;
16832;SDS011;8533;48.426;10.868;2022-10-20T00:47:12;16.60;;;8.10;;
16832;SDS011;8533;48.426;10.868;2022-10-20T00:49:41;13.93;;;8.10;;
16832;SDS011;8533;48.426;10.868;2022-10-20T00:52:10;15.70;;;7.90;;
16832;SDS011;8533;48.426;10.868;2022-10-20T00:54:37;15.67;;;8.30;;
16832;SDS011;8533;48.426;10.868;2022-10-20T00:57:06;16.00;;;8.03;;
16832;SDS011;8533;48.426;10.868;2022-10-20T00:59:34;16.87;;;8.63;;
16832;SDS011;8533;48.426;10.868;2022-10-20T01:02:04;20.40;;;9.30;;
16832;SDS011;8533;48.426;10.868;2022-10-20T01:04:34;19.33;;;8.90;;
16832;SDS011;8533;48.426;10.868;2022-10-20T01:07:03;18.60;;;9.40;;
16832;SDS011;8533;48.426;10.868;2022-10-20T01:09:31;18.60;;;8.63;;
16832;SDS011;8533;48.426;10.868;2022-10-20T01:28:39;29.60;;;13.30;;
16832;SDS011;8533;48.426;10.868;2022-10-20T01:31:16;36.20;;;14.60;;
16832;SDS011;8533;48.426;10.868;2022-10-20T01:41:37;27.43;;;13.73;;
16832;SDS011;8533;48.426;10.868;2022-10-20T01:44:02;35.70;;;16.40;;
16832;SDS011;8533;48.426;10.868;2022-10-20T01:46:32;32.57;;;15.40;;
16832;SDS011;8533;48.426;10.868;2022-10-20T01:49:02;33.63;;;15.70;;
16832;SDS011;8533;48.426;10.868;2022-10-20T01:51:31;37.13;;;16.17;;
16832;SDS011;8533;48.426;10.868;2022-10-20T01:53:59;34.73;;;15.50;;
16832;SDS011;8533;48.426;10.868;2022-10-20T01:56:28;35.27;;;15.67;;
16832;SDS011;8533;48.426;10.868;2022-10-20T01:59:28;36.50;;;16.53;;
16832;SDS011;8533;48.426;10.868;2022-10-20T02:02:10;46.70;;;15.70;;
16832;SDS011;8533;48.426;10.868;2022-10-20T02:04:51;35.80;;;16.20;;
16832;SDS011;8533;48.426;10.868;2022-10-20T02:07:33;41.03;;;15.87;;
16832;SDS011;8533;48.426;10.868;2022-10-20T02:15:06;36.37;;;16.60;;
16832;SDS011;8533;48.426;10.868;2022-10-20T02:17:37;38.37;;;16.50;;
16832;SDS011;8533;48.426;10.868;2022-10-20T02:20:07;37.97;;;15.80;;
16832;SDS011;8533;48.426;10.868;2022-10-20T02:22:36;37.83;;;17.57;;
16832;SDS011;8533;48.426;10.868;2022-10-20T02:25:07;41.90;;;16.87;;
16832;SDS011;8533;48.426;10.868;2022-10-20T02:27:36;39.23;;;16.77;;
16832;SDS011;8533;48.426;10.868;2022-10-20T02:30:07;39.53;;;16.57;;
16832;SDS011;8533;48.426;10.868;2022-10-20T02:32:38;36.47;;;16.43;;
16832;SDS011;8533;48.426;10.868;2022-10-20T02:35:13;41.43;;;18.37;;
16832;SDS011;8533;48.426;10.868;2022-10-20T02:37:38;40.53;;;17.33;;
16832;SDS011;8533;48.426;10.868;2022-10-20T02:40:05;43.30;;;18.40;;
16832;SDS011;8533;48.426;10.868;2022-10-20T02:42:33;34.97;;;16.33;;
16832;SDS011;8533;48.426;10.868;2022-10-20T02:45:02;44.97;;;18.87;;
16832;SDS011;8533;48.426;10.868;2022-10-20T02:47:30;42.63;;;17.90;;
16832;SDS011;8533;48.426;10.868;2022-10-20T02:49:57;40.53;;;17.87;;
16832;SDS011;8533;48.426;10.868;2022-10-20T02:52:26;37.97;;;18.17;;
16832;SDS011;8533;48.426;10.868;2022-10-20T02:54:54;40.63;;;18.47;;
16832;SDS011;8533;48.426;10.868;2022-10-20T02:57:21;42.70;;;18.10;;
16832;SDS011;8533;48.426;10.868;2022-10-20T02:59:49;39.20;;;17.47;;
16832;SDS011;8533;48.426;10.868;2022-10-20T03:02:16;36.23;;;17.20;;
16832;SDS011;8533;48.426;10.868;2022-10-20T03:04:44;35.37;;;16.60;;
16832;SDS011;8533;48.426;10.868;2022-10-20T03:07:11;40.27;;;17.23;;
16832;SDS011;8533;48.426;10.868;2022-10-20T03:09:39;41.30;;;17.30;;
16832;SDS011;8533;48.426;10.868;2022-10-20T03:12:08;67.60;;;17.30;;
16832;SDS011;8533;48.426;10.868;2022-10-20T03:14:36;34.57;;;16.07;;
16832;SDS011;8533;48.426;10.868;2022-10-20T03:17:03;36.63;;;16.47;;
16832;SDS011;8533;48.426;10.868;2022-10-20T03:19:31;38.13;;;17.27;;
16832;SDS011;8533;48.426;10.868;2022-10-20T03:21:58;40.27;;;16.83;;
16832;SDS011;8533;48.426;10.868;2022-10-20T03:24:25;40.10;;;17.20;;
16832;SDS011;8533;48.426;10.868;2022-10-20T03:26:53;38.43;;;17.80;;
16832;SDS011;8533;48.426;10.868;2022-10-20T03:29:20;38.93;;;17.20;;
16832;SDS011;8533;48.426;10.868;2022-10-20T03:31:48;40.27;;;17.23;;
16832;SDS011;8533;48.426;10.868;2022-10-20T03:34:15;41.93;;;16.80;;
16832;SDS011;8533;48.426;10.868;2022-10-20T03:36:42;40.67;;;17.77;;
16832;SDS011;8533;48.426;10.868;2022-10-20T03:39:10;40.30;;;16.67;;
16832;SDS011;8533;48.426;10.868;2022-10-20T03:41:37;36.37;;;15.70;;
16832;SDS011;8533;48.426;10.868;2022-10-20T03:44:05;35.73;;;16.13;;
16832;SDS011;8533;48.426;10.868;2022-10-20T03:46:32;43.03;;;16.47;;
16832;SDS011;8533;48.426;10.868;2022-10-20T03:48:59;38.67;;;17.50;;
16832;SDS011;8533;48.426;10.868;2022-10-20T03:51:27;41.17;;;17.13;;
16832;SDS011;8533;48.426;10.868;2022-10-20T03:53:54;40.50;;;17.00;;
16832;SDS011;8533;48.426;10.868;2022-10-20T03:56:22;41.80;;;17.30;;
16832;SDS011;8533;48.426;10.868;2022-10-20T03:58:49;33.77;;;14.70;;
16832;SDS011;8533;48.426;10.868;2022-10-20T04:01:18;36.33;;;17.07;;
16832;SDS011;8533;48.426;10.868;2022-10-20T04:03:47;37.17;;;16.53;;
16832;SDS011;8533;48.426;10.868;2022-10-20T04:06:15;35.50;;;15.73;;
16832;SDS011;8533;48.426;10.868;2022-10-20T04:08:42;39.07;;;16.57;;
16832;SDS011;8533;48.426;10.868;2022-10-20T04:11:09;37.50;;;17.13;;
16832;SDS011;8533;48.426;10.868;2022-10-20T04:13:37;33.70;;;16.23;;
16832;SDS011;8533;48.426;10.868;2022-10-20T04:16:05;34.77;;;16.17;;
16832;SDS011;8533;48.426;10.868;2022-10-20T04:18:33;38.93;;;16.23;;
16832;SDS011;8533;48.426;10.868;2022-10-20T04:21:00;36.47;;;16.50;;
16832;SDS011;8533;48.426;10.868;2022-10-20T04:23:28;38.93;;;16.70;;
16832;SDS011;8533;48.426;10.868;2022-10-20T04:25:55;35.00;;;16.50;;
16832;SDS011;8533;48.426;10.868;2022-10-20T04:28:22;34.40;;;16.07;;
16832;SDS011;8533;48.426;10.868;2022-10-20T04:30:50;33.20;;;14.90;;
16832;SDS011;8533;48.426;10.868;2022-10-20T04:33:17;34.37;;;16.47;;
16832;SDS011;8533;48.426;10.868;2022-10-20T04:35:45;33.37;;;15.23;;
16832;SDS011;8533;48.426;10.868;2022-10-20T04:38:12;37.73;;;15.27;;
16832;SDS011;8533;48.426;10.868;2022-10-20T04:40:39;35.57;;;15.57;;
16832;SDS011;8533;48.426;10.868;2022-10-20T04:43:07;40.17;;;15.63;;
16832;SDS011;8533;48.426;10.868;2022-10-20T04:45:35;34.20;;;14.87;;
16832;SDS011;8533;48.426;10.868;2022-10-20T04:48:03;30.93;;;14.07;;
16832;SDS011;8533;48.426;10.868;2022-10-20T04:50:31;40.17;;;16.10;;
16832;SDS011;8533;48.426;10.868;2022-10-20T04:52:58;30.53;;;15.03;;
16832;SDS011;8533;48.426;10.868;2022-10-20T04:55:26;32.37;;;14.27;;
16832;SDS011;8533;48.426;10.868;2022-10-20T04:57:53;35.10;;;15.23;;
16832;SDS011;8533;48.426;10.868;2022-10-20T05:00:20;33.47;;;14.43;;
16832;SDS011;8533;48.426;10.868;2022-10-20T05:02:48;30.67;;;14.77;;
16832;SDS011;8533;48.426;10.868;2022-10-20T05:05:15;31.70;;;15.33;;
16832;SDS011;8533;48.426;10.868;2022-10-20T05:07:43;29.57;;;13.40;;
16832;SDS011;8533;48.426;10.868;2022-10-20T05:10:10;32.17;;;14.37;;
16832;SDS011;8533;48.426;10.868;2022-10-20T05:12:37;33.87;;;14.80;;
16832;SDS011;8533;48.426;10.868;2022-10-20T05:15:05;28.87;;;14.33;;
16832;SDS011;8533;48.426;10.868;2022-10-20T05:17:33;31.60;;;12.90;;
16832;SDS011;8533;48.426;10.868;2022-10-20T05:20:00;31.40;;;14.40;;
16832;SDS011;8533;48.426;10.868;2022-10-20T05:22:29;31.67;;;14.70;;
16832;SDS011;8533;48.426;10.868;2022-10-20T05:24:56;32.70;;;14.67;;
16832;SDS011;8533;48.426;10.868;2022-10-20T05:27:24;29.90;;;12.63;;
16832;SDS011;8533;48.426;10.868;2022-10-20T05:29:53;31.73;;;15.03;;
16832;SDS011;8533;48.426;10.868;2022-10-20T05:32:20;31.77;;;14.93;;
16832;SDS011;8533;48.426;10.868;2022-10-20T05:34:47;31.83;;;14.00;;
16832;SDS011;8533;48.426;10.868;2022-10-20T05:37:15;32.07;;;14.13;;
16832;SDS011;8533;48.426;10.868;2022-10-20T05:39:42;33.87;;;14.80;;
16832;SDS011;8533;48.426;10.868;2022-10-20T05:42:10;33.10;;;14.33;;
16832;SDS011;8533;48.426;10.868;2022-10-20T05:44:37;27.73;;;13.60;;
16832;SDS011;8533;48.426;10.868;2022-10-20T05:47:05;30.07;;;12.93;;
16832;SDS011;8533;48.426;10.868;2022-10-20T05:49:32;30.30;;;14.00;;
16832;SDS011;8533;48.426;10.868;2022-10-20T05:52:00;31.70;;;13.83;;
16832;SDS011;8533;48.426;10.868;2022-10-20T05:54:27;29.20;;;13.87;;
16832;SDS011;8533;48.426;10.868;2022-10-20T05:56:54;31.43;;;14.57;;
16832;SDS011;8533;48.426;10.868;2022-10-20T05:59:24;30.03;;;13.87;;
16832;SDS011;8533;48.426;10.868;2022-10-20T06:01:51;31.73;;;14.10;;
16832;SDS011;8533;48.426;10.868;2022-10-20T06:04:19;31.10;;;14.30;;
16832;SDS011;8533;48.426;10.868;2022-10-20T06:06:53;27.87;;;13.23;;
16832;SDS011;8533;48.426;10.868;2022-10-20T06:09:21;33.37;;;14.40;;
16832;SDS011;8533;48.426;10.868;2022-10-20T06:11:50;29.70;;;14.10;;
16832;SDS011;8533;48.426;10.868;2022-10-20T06:14:18;29.60;;;13.73;;
16832;SDS011;8533;48.426;10.868;2022-10-20T06:16:50;31.80;;;13.57;;
16832;SDS011;8533;48.426;10.868;2022-10-20T06:19:19;38.93;;;14.23;;
16832;SDS011;8533;48.426;10.868;2022-10-20T06:21:48;27.87;;;13.43;;
16832;SDS011;8533;48.426;10.868;2022-10-20T06:24:16;28.10;;;12.60;;
16832;SDS011;8533;48.426;10.868;2022-10-20T06:26:45;28.90;;;13.07;;
16832;SDS011;8533;48.426;10.868;2022-10-20T06:29:13;32.60;;;13.20;;
16832;SDS011;8533;48.426;10.868;2022-10-20T06:31:43;29.70;;;13.13;;
16832;SDS011;8533;48.426;10.868;2022-10-20T06:34:14;29.17;;;13.50;;
16832;SDS011;8533;48.426;10.868;2022-10-20T06:36:43;29.13;;;13.30;;
16832;SDS011;8533;48.426;10.868;2022-10-20T06:39:13;35.77;;;13.67;;
16832;SDS011;8533;48.426;10.868;2022-10-20T06:41:48;28.13;;;12.53;;
16832;SDS011;8533;48.426;10.868;2022-10-20T06:44:15;28.40;;;12.83;;
16832;SDS011;8533;48.426;10.868;2022-10-20T06:46:47;30.13;;;13.53;;
16832;SDS011;8533;48.426;10.868;2022-10-20T06:49:16;28.00;;;13.23;;
16832;SDS011;8533;48.426;10.868;2022-10-20T06:51:44;34.07;;;13.77;;
16832;SDS011;8533;48.426;10.868;2022-10-20T06:54:12;27.97;;;12.73;;
16832;SDS011;8533;48.426;10.868;2022-10-20T06:56:39;29.40;;;13.13;;
16832;SDS011;8533;48.426;10.868;2022-10-20T06:59:07;29.13;;;12.07;;
16832;SDS011;8533;48.426;10.868;2022-10-20T07:01:35;22.80;;;11.47;;
16832;SDS011;8533;48.426;10.868;2022-10-20T07:04:05;26.00;;;12.57;;
16832;SDS011;8533;48.426;10.868;2022-10-20T07:06:35;30.07;;;12.50;;
16832;SDS011;8533;48.426;10.868;2022-10-20T07:09:05;23.17;;;11.80;;
16832;SDS011;8533;48.426;10.868;2022-10-20T07:11:33;26.63;;;12.00;;
16832;SDS011;8533;48.426;10.868;2022-10-20T07:14:01;28.60;;;12.77;;
16832;SDS011;8533;48.426;10.868;2022-10-20T07:16:31;22.97;;;12.23;;
16832;SDS011;8533;48.426;10.868;2022-10-20T07:19:00;23.57;;;12.70;;
16832;SDS011;8533;48.426;10.868;2022-10-20T07:21:28;23.23;;;11.67;;
16832;SDS011;8533;48.426;10.868;2022-10-20T07:23:56;30.30;;;12.23;;
16832;SDS011;8533;48.426;10.868;2022-10-20T07:26:27;21.67;;;12.70;;
16832;SDS011;8533;48.426;10.868;2022-10-20T07:28:57;25.00;;;12.30;;
16832;SDS011;8533;48.426;10.868;2022-10-20T07:31:37;22.43;;;11.07;;
16832;SDS011;8533;48.426;10.868;2022-10-20T07:36:29;22.97;;;12.57;;
16832;SDS011;8533;48.426;10.868;2022-10-20T07:38:59;23.10;;;12.20;;
16832;SDS011;8533;48.426;10.868;2022-10-20T07:41:28;23.20;;;11.27;;
16832;SDS011;8533;48.426;10.868;2022-10-20T07:43:58;25.40;;;11.83;;
16832;SDS011;8533;48.426;10.868;2022-10-20T07:46:26;26.80;;;12.20;;
16832;SDS011;8533;48.426;10.868;2022-10-20T07:48:53;23.10;;;11.63;;
16832;SDS011;8533;48.426;10.868;2022-10-20T07:53:57;26.17;;;11.97;;
16832;SDS011;8533;48.426;10.868;2022-10-20T07:58:59;25.23;;;12.37;;
16832;SDS011;8533;48.426;10.868;2022-10-20T08:01:27;27.67;;;12.57;;
16832;SDS011;8533;48.426;10.868;2022-10-20T08:03:54;27.00;;;12.80;;
16832;SDS011;8533;48.426;10.868;2022-10-20T08:06:21;28.10;;;11.87;;
16832;SDS011;8533;48.426;10.868;2022-10-20T08:08:50;25.93;;;11.73;;
16832;SDS011;8533;48.426;10.868;2022-10-20T08:11:17;31.30;;;13.07;;
16832;SDS011;8533;48.426;10.868;2022-10-20T08:13:45;27.67;;;11.80;;
16832;SDS011;8533;48.426;10.868;2022-10-20T08:16:12;24.43;;;11.47;;
16832;SDS011;8533;48.426;10.868;2022-10-20T08:18:41;26.47;;;12.43;;
16832;SDS011;8533;48.426;10.868;2022-10-20T08:21:11;29.27;;;11.97;;
16832;SDS011;8533;48.426;10.868;2022-10-20T08:23:46;28.33;;;11.70;;
16832;SDS011;8533;48.426;10.868;2022-10-20T08:26:10;35.87;;;12.07;;
16832;SDS011;8533;48.426;10.868;2022-10-20T08:28:40;24.80;;;12.33;;
16832;SDS011;8533;48.426;10.868;2022-10-20T08:31:07;28.80;;;12.77;;
16832;SDS011;8533;48.426;10.868;2022-10-20T08:33:34;28.57;;;11.60;;
16832;SDS011;8533;48.426;10.868;2022-10-20T08:36:09;33.30;;;12.23;;
16832;SDS011;8533;48.426;10.868;2022-10-20T08:41:11;27.67;;;12.07;;
16832;SDS011;8533;48.426;10.868;2022-10-20T08:46:14;25.47;;;12.20;;
16832;SDS011;8533;48.426;10.868;2022-10-20T08:48:43;25.80;;;11.47;;
16832;SDS011;8533;48.426;10.868;2022-10-20T08:51:17;21.50;;;10.23;;
16832;SDS011;8533;48.426;10.868;2022-10-20T08:53:45;26.80;;;11.80;;
16832;SDS011;8533;48.426;10.868;2022-10-20T08:56:16;25.10;;;10.93;;
16832;SDS011;8533;48.426;10.868;2022-10-20T08:58:46;21.63;;;10.63;;
16832;SDS011;8533;48.426;10.868;2022-10-20T09:01:18;24.80;;;12.33;;
16832;SDS011;8533;48.426;10.868;2022-10-20T09:03:52;23.43;;;12.57;;
16832;SDS011;8533;48.426;10.868;2022-10-20T09:06:20;26.60;;;10.83;;
16832;SDS011;8533;48.426;10.868;2022-10-20T09:08:48;27.00;;;11.13;;
16832;SDS011;8533;48.426;10.868;2022-10-20T09:11:18;25.87;;;10.83;;
16832;SDS011;8533;48.426;10.868;2022-10-20T09:13:46;21.73;;;10.67;;
16832;SDS011;8533;48.426;10.868;2022-10-20T09:16:20;23.03;;;10.43;;
16832;SDS011;8533;48.426;10.868;2022-10-20T09:21:19;22.60;;;10.70;;
16832;SDS011;8533;48.426;10.868;2022-10-20T09:23:48;35.40;;;10.63;;
16832;SDS011;8533;48.426;10.868;2022-10-20T09:26:22;19.30;;;10.27;;
16832;SDS011;8533;48.426;10.868;2022-10-20T09:28:51;24.17;;;11.00;;
16832;SDS011;8533;48.426;10.868;2022-10-20T09:31:23;19.30;;;9.50;;
16832;SDS011;8533;48.426;10.868;2022-10-20T09:36:33;22.27;;;9.97;;
16832;SDS011;8533;48.426;10.868;2022-10-20T09:39:01;20.47;;;9.97;;
16832;SDS011;8533;48.426;10.868;2022-10-20T09:41:30;26.17;;;9.83;;
16832;SDS011;8533;48.426;10.868;2022-10-20T09:44:01;23.43;;;10.27;;
16832;SDS011;8533;48.426;10.868;2022-10-20T09:46:33;60.20;;;31.63;;
16832;SDS011;8533;48.426;10.868;2022-10-20T09:49:02;22.97;;;13.13;;
16832;SDS011;8533;48.426;10.868;2022-10-20T09:51:31;21.17;;;10.03;;
16832;SDS011;8533;48.426;10.868;2022-10-20T09:54:00;22.63;;;9.83;;
16832;SDS011;8533;48.426;10.868;2022-10-20T09:56:38;18.63;;;9.77;;
16832;SDS011;8533;48.426;10.868;2022-10-20T09:59:05;16.13;;;8.80;;
16832;SDS011;8533;48.426;10.868;2022-10-20T10:01:33;20.07;;;9.57;;
16832;SDS011;8533;48.426;10.868;2022-10-20T10:04:02;17.70;;;9.13;;
16832;SDS011;8533;48.426;10.868;2022-10-20T10:16:55;21.10;;;9.90;;
16832;SDS011;8533;48.426;10.868;2022-10-20T10:19:24;18.97;;;9.17;;
16832;SDS011;8533;48.426;10.868;2022-10-20T10:21:54;22.07;;;8.90;;
16832;SDS011;8533;48.426;10.868;2022-10-20T10:26:57;22.70;;;10.03;;
16832;SDS011;8533;48.426;10.868;2022-10-20T10:29:36;22.10;;;10.20;;
16832;SDS011;8533;48.426;10.868;2022-10-20T10:37:13;15.77;;;9.10;;
16832;SDS011;8533;48.426;10.868;2022-10-20T10:39:42;19.30;;;9.97;;
16832;SDS011;8533;48.426;10.868;2022-10-20T10:42:23;16.93;;;9.47;;
16832;SDS011;8533;48.426;10.868;2022-10-20T10:45:17;18.90;;;9.40;;
16832;SDS011;8533;48.426;10.868;2022-10-20T10:50:52;14.43;;;8.67;;
16832;SDS011;8533;48.426;10.868;2022-10-20T10:53:34;21.27;;;9.83;;
16832;SDS011;8533;48.426;10.868;2022-10-20T10:56:10;18.00;;;9.20;;
16832;SDS011;8533;48.426;10.868;2022-10-20T11:07:23;15.97;;;9.23;;
16832;SDS011;8533;48.426;10.868;2022-10-20T11:17:39;14.70;;;8.83;;
16832;SDS011;8533;48.426;10.868;2022-10-20T11:33:31;15.20;;;9.57;;
16832;SDS011;8533;48.426;10.868;2022-10-20T11:36:03;18.17;;;10.00;;
16832;SDS011;8533;48.426;10.868;2022-10-20T11:38:30;24.37;;;10.70;;
16832;SDS011;8533;48.426;10.868;2022-10-20T11:41:03;18.63;;;9.70;;
16832;SDS011;8533;48.426;10.868;2022-10-20T11:46:33;15.23;;;8.80;;
16832;SDS011;8533;48.426;10.868;2022-10-20T11:57:04;15.40;;;9.70;;
16832;SDS011;8533;48.426;10.868;2022-10-20T11:59:47;16.10;;;8.40;;
16832;SDS011;8533;48.426;10.868;2022-10-20T12:05:54;13.93;;;8.23;;
16832;SDS011;8533;48.426;10.868;2022-10-20T12:08:47;14.87;;;8.00;;
16832;SDS011;8533;48.426;10.868;2022-10-20T12:19:33;14.30;;;7.30;;
16832;SDS011;8533;48.426;10.868;2022-10-20T12:22:02;11.77;;;7.67;;
16832;SDS011;8533;48.426;10.868;2022-10-20T12:24:33;10.23;;;6.93;;
16832;SDS011;8533;48.426;10.868;2022-10-20T12:34:52;11.50;;;7.20;;
16832;SDS011;8533;48.426;10.868;2022-10-20T12:39:55;11.97;;;7.47;;
16832;SDS011;8533;48.426;10.868;2022-10-20T12:42:27;15.43;;;7.67;;
16832;SDS011;8533;48.426;10.868;2022-10-20T12:47:46;14.47;;;8.03;;
16832;SDS011;8533;48.426;10.868;2022-10-20T12:50:25;14.63;;;8.30;;
16832;SDS011;8533;48.426;10.868;2022-10-20T12:55:25;18.10;;;8.30;;
16832;SDS011;8533;48.426;10.868;2022-10-20T13:06:37;16.60;;;8.40;;
16832;SDS011;8533;48.426;10.868;2022-10-20T13:19:18;17.03;;;9.20;;
16832;SDS011;8533;48.426;10.868;2022-10-20T13:21:46;14.07;;;8.37;;
16832;SDS011;8533;48.426;10.868;2022-10-20T13:24:20;14.03;;;8.80;;
16832;SDS011;8533;48.426;10.868;2022-10-20T13:26:49;14.30;;;8.40;;
16832;SDS011;8533;48.426;10.868;2022-10-20T13:29:34;16.83;;;9.47;;
16832;SDS011;8533;48.426;10.868;2022-10-20T13:37:19;19.20;;;10.57;;
16832;SDS011;8533;48.426;10.868;2022-10-20T13:50:31;16.50;;;9.33;;
16832;SDS011;8533;48.426;10.868;2022-10-20T13:53:02;18.80;;;8.97;;
16832;SDS011;8533;48.426;10.868;2022-10-20T13:58:18;17.57;;;9.50;;
16832;SDS011;8533;48.426;10.868;2022-10-20T14:01:21;14.93;;;9.00;;
16832;SDS011;8533;48.426;10.868;2022-10-20T14:03:31;20.10;;;9.40;;
16832;SDS011;8533;48.426;10.868;2022-10-20T14:06:00;19.20;;;10.20;;
16832;SDS011;8533;48.426;10.868;2022-10-20T14:08:28;18.17;;;9.87;;
16832;SDS011;8533;48.426;10.868;2022-10-20T14:11:02;17.10;;;10.10;;
16832;SDS011;8533;48.426;10.868;2022-10-20T14:16:03;17.97;;;10.27;;
16832;SDS011;8533;48.426;10.868;2022-10-20T14:18:32;18.10;;;9.53;;
16832;SDS011;8533;48.426;10.868;2022-10-20T14:21:06;18.00;;;9.73;;
16832;SDS011;8533;48.426;10.868;2022-10-20T14:23:39;21.13;;;10.17;;
16832;SDS011;8533;48.426;10.868;2022-10-20T14:26:14;21.50;;;9.70;;
16832;SDS011;8533;48.426;10.868;2022-10-20T14:31:19;16.43;;;9.97;;
16832;SDS011;8533;48.426;10.868;2022-10-20T14:33:47;17.63;;;9.63;;
16832;SDS011;8533;48.426;10.868;2022-10-20T14:36:24;16.40;;;9.90;;
16832;SDS011;8533;48.426;10.868;2022-10-20T14:41:23;17.10;;;9.43;;
16832;SDS011;8533;48.426;10.868;2022-10-20T14:44:01;20.30;;;10.43;;
16832;SDS011;8533;48.426;10.868;2022-10-20T14:46:30;18.30;;;10.20;;
16832;SDS011;8533;48.426;10.868;2022-10-20T14:51:40;20.67;;;9.70;;
16832;SDS011;8533;48.426;10.868;2022-10-20T14:56:59;23.75;;;10.95;;
16832;SDS011;8533;48.426;10.868;2022-10-20T14:59:30;21.20;;;11.73;;
16832;SDS011;8533;48.426;10.868;2022-10-20T15:07:03;21.30;;;11.53;;
16832;SDS011;8533;48.426;10.868;2022-10-20T15:15:01;17.13;;;10.10;;
16832;SDS011;8533;48.426;10.868;2022-10-20T15:22:52;18.63;;;10.83;;
16832;SDS011;8533;48.426;10.868;2022-10-20T15:25:19;16.93;;;9.90;;
16832;SDS011;8533;48.426;10.868;2022-10-20T15:27:47;23.93;;;11.20;;
16832;SDS011;8533;48.426;10.868;2022-10-20T15:30:15;19.37;;;10.47;;
16832;SDS011;8533;48.426;10.868;2022-10-20T15:32:44;23.03;;;12.00;;
16832;SDS011;8533;48.426;10.868;2022-10-20T15:35:12;19.07;;;11.17;;
16832;SDS011;8533;48.426;10.868;2022-10-20T15:37:48;20.23;;;10.80;;
16832;SDS011;8533;48.426;10.868;2022-10-20T15:40:18;21.23;;;9.93;;
16832;SDS011;8533;48.426;10.868;2022-10-20T15:42:47;17.87;;;9.87;;
16832;SDS011;8533;48.426;10.868;2022-10-20T15:45:23;16.07;;;9.40;;
16832;SDS011;8533;48.426;10.868;2022-10-20T15:47:48;18.30;;;10.03;;
16832;SDS011;8533;48.426;10.868;2022-10-20T15:50:15;16.83;;;9.90;;
16832;SDS011;8533;48.426;10.868;2022-10-20T15:52:43;18.17;;;9.80;;
16832;SDS011;8533;48.426;10.868;2022-10-20T15:55:21;17.40;;;10.47;;
16832;SDS011;8533;48.426;10.868;2022-10-20T15:57:53;18.80;;;10.20;;
16832;SDS011;8533;48.426;10.868;2022-10-20T16:00:22;21.23;;;9.90;;
16832;SDS011;8533;48.426;10.868;2022-10-20T16:02:51;19.00;;;10.67;;
16832;SDS011;8533;48.426;10.868;2022-10-20T16:05:19;21.27;;;10.70;;
16832;SDS011;8533;48.426;10.868;2022-10-20T16:07:51;20.73;;;11.67;;
16832;SDS011;8533;48.426;10.868;2022-10-20T16:10:20;20.90;;;11.03;;
16832;SDS011;8533;48.426;10.868;2022-10-20T16:12:49;14.27;;;9.63;;
16832;SDS011;8533;48.426;10.868;2022-10-20T16:15:17;17.37;;;9.63;;
16832;SDS011;8533;48.426;10.868;2022-10-20T16:17:44;18.80;;;10.27;;
16832;SDS011;8533;48.426;10.868;2022-10-20T16:20:12;24.20;;;9.90;;
16832;SDS011;8533;48.426;10.868;2022-10-20T16:22:40;19.00;;;10.70;;
16832;SDS011;8533;48.426;10.868;2022-10-20T16:25:08;21.07;;;11.00;;
16832;SDS011;8533;48.426;10.868;2022-10-20T16:27:36;22.47;;;11.03;;
16832;SDS011;8533;48.426;10.868;2022-10-20T16:30:04;16.53;;;9.70;;
16832;SDS011;8533;48.426;10.868;2022-10-20T16:32:33;17.43;;;10.93;;
16832;SDS011;8533;48.426;10.868;2022-10-20T16:35:02;20.53;;;10.67;;
16832;SDS011;8533;48.426;10.868;2022-10-20T16:37:31;22.13;;;11.70;;
16832;SDS011;8533;48.426;10.868;2022-10-20T16:39:59;24.00;;;11.13;;
16832;SDS011;8533;48.426;10.868;2022-10-20T16:42:27;18.13;;;10.37;;
16832;SDS011;8533;48.426;10.868;2022-10-20T16:44:55;17.43;;;9.80;;
16832;SDS011;8533;48.426;10.868;2022-10-20T16:47:23;17.47;;;9.70;;
16832;SDS011;8533;48.426;10.868;2022-10-20T16:49:51;18.67;;;10.20;;
16832;SDS011;8533;48.426;10.868;2022-10-20T16:52:18;19.43;;;9.50;;
16832;SDS011;8533;48.426;10.868;2022-10-20T16:54:46;17.33;;;10.17;;
16832;SDS011;8533;48.426;10.868;2022-10-20T16:57:13;23.77;;;10.60;;
16832;SDS011;8533;48.426;10.868;2022-10-20T16:59:41;22.33;;;11.33;;
16832;SDS011;8533;48.426;10.868;2022-10-20T17:02:11;21.40;;;10.93;;
16832;SDS011;8533;48.426;10.868;2022-10-20T17:04:38;20.60;;;10.50;;
16832;SDS011;8533;48.426;10.868;2022-10-20T17:07:07;20.53;;;10.47;;
16832;SDS011;8533;48.426;10.868;2022-10-20T17:09:35;16.87;;;9.87;;
16832;SDS011;8533;48.426;10.868;2022-10-20T17:12:04;22.10;;;10.63;;
16832;SDS011;8533;48.426;10.868;2022-10-20T17:14:31;19.00;;;10.43;;
16832;SDS011;8533;48.426;10.868;2022-10-20T17:16:59;17.47;;;9.43;;
16832;SDS011;8533;48.426;10.868;2022-10-20T17:19:26;17.90;;;10.13;;
16832;SDS011;8533;48.426;10.868;2022-10-20T17:21:54;18.23;;;10.53;;
16832;SDS011;8533;48.426;10.868;2022-10-20T17:24:22;23.03;;;11.07;;
16832;SDS011;8533;48.426;10.868;2022-10-20T17:26:49;22.17;;;11.00;;
16832;SDS011;8533;48.426;10.868;2022-10-20T17:29:17;18.40;;;10.40;;
16832;SDS011;8533;48.426;10.868;2022-10-20T17:31:46;22.90;;;10.77;;
16832;SDS011;8533;48.426;10.868;2022-10-20T17:34:14;22.93;;;10.87;;
16832;SDS011;8533;48.426;10.868;2022-10-20T17:36:42;25.27;;;10.40;;
16832;SDS011;8533;48.426;10.868;2022-10-20T17:39:11;23.57;;;11.50;;
16832;SDS011;8533;48.426;10.868;2022-10-20T17:41:42;19.60;;;10.80;;
16832;SDS011;8533;48.426;10.868;2022-10-20T17:44:09;18.23;;;10.63;;
16832;SDS011;8533;48.426;10.868;2022-10-20T17:46:37;20.80;;;10.07;;
16832;SDS011;8533;48.426;10.868;2022-10-20T17:49:06;22.77;;;10.43;;
16832;SDS011;8533;48.426;10.868;2022-10-20T17:51:35;31.97;;;11.90;;
16832;SDS011;8533;48.426;10.868;2022-10-20T17:54:02;20.30;;;10.50;;
16832;SDS011;8533;48.426;10.868;2022-10-20T17:56:31;18.33;;;10.77;;
16832;SDS011;8533;48.426;10.868;2022-10-20T17:59:01;20.03;;;11.67;;
16832;SDS011;8533;48.426;10.868;2022-10-20T18:01:32;18.77;;;10.37;;
16832;SDS011;8533;48.426;10.868;2022-10-20T18:04:04;22.00;;;11.17;;